KARV/ARV METAR and TAF weather

Enter ICAO airport designator
Station Type Date Time Source
KARV METAR 2021/01/22 05:55 UTC NOAA

KARV 220555Z AUTO 32009G14KT 7SM SCT019 OVC026 M13/M17 A2984 RMK AO2 T11281172 11088 21128


Station Type Date Time Source
KARV Decoded METAR 2021/01/22 05:55 UTC NOAA

Minocqua/Woodruff, Lakeland Airport/Noble F. Lee Memorial Field, WI, United States (KARV) 45-56N 089-44W
Jan 22, 2021 - 12:55 AM EST / 2021.01.22 0555 UTC
Wind: from the NW (320 degrees) at 10 MPH (9 KT) gusting to 16 MPH (14 KT):0
Visibility: 7 mile(s):0
Sky conditions: overcast
Temperature: 9.0 F (-12.8 C)
Windchill: -4 F (-20 C):1
Dew Point: 1.0 F (-17.2 C)
Relative Humidity: 69%
Pressure (altimeter): 29.84 in. Hg (1010 hPa)
ob: KARV 220555Z AUTO 32009G14KT 7SM SCT019 OVC026 M13/M17 A2984 RMK AO2 T11281172 11088 21128
cycle: 6

Station Type Date Time Source
KARV TAF UTC NOAA

Error!

Example: see airport list